Flight Track Log - Related Links

Times and Time Zones

All times are in EDT time to prevent confusion due to time zone crossing. See the N682RW flight status page for this flight to view local times or setup timezone preferences in your user account.

Time Position Orientation Groundspeed Altitude Reporting Facility
EDT Latitude Longitude Course Direction KTS MPH feet Rate Location/Type
Sun 07:02:13 PM 39.1000 -94.6000 247° West 166 191 1,700  Level Kansas City TRACON
Sun 07:03:07 PM 39.0833 -94.6500 247° West 203 234 3,100 1,831 Climbing Kansas City TRACON
Sun 07:04:11 PM 39.0536 -94.7297 244° Southwest 253 291 5,300 1,905 Climbing Kansas City Center
Sun 07:05:13 PM 39.1000 -94.8236 303° West 285 328 7,100 2,371 Climbing Kansas City Center
Sun 07:06:15 PM 39.1744 -94.8203 North 281 323 10,200 2,177 Climbing Kansas City Center
Sun 07:07:17 PM 39.2733 -94.8039 North 337 388 11,600 2,032 Climbing Kansas City Center
Sun 07:08:19 PM 39.3667 -94.7831 10° North 355 409 14,400 1,645 Climbing Kansas City Center
Sun 07:09:21 PM 39.4800 -94.7642 North 371 427 15,000 871 Climbing Kansas City Center
Sun 07:10:23 PM 39.5775 -94.7483 North 370 426 16,200 1,597 Climbing Kansas City Center
Sun 07:11:25 PM 39.6961 -94.7292 North 386 444 18,300 1,887 Climbing Kansas City Center
Sun 07:12:27 PM 39.8036 -94.7092 North 405 466 20,100 1,694 Climbing Kansas City Center
Sun 07:13:29 PM 39.9117 -94.6911 North 408 470 21,800 1,403 Climbing Kansas City Center
Sun 07:14:31 PM 40.0286 -94.6064 29° Northeast 452 520 23,000 1,355 Climbing Kansas City Center
Sun 07:15:33 PM 40.1233 -94.4986 41° Northeast 471 542 24,600 1,597 Climbing Kansas City Center
Sun 07:16:35 PM 40.2367 -94.3742 40° Northeast 475 547 26,300 1,645 Climbing Kansas City Center
Sun 07:17:37 PM 40.3464 -94.2489 41° Northeast 484 557 28,000 1,500 Climbing Kansas City Center
Sun 07:18:39 PM 40.4475 -94.1342 41° Northeast 485 558 29,400 1,161 Climbing Kansas City Center
Sun 07:19:41 PM 40.5367 -94.0044 48° Northeast 487 560 30,400 871 Climbing Kansas City Center
Sun 07:20:43 PM 40.5639 -93.8297 78° East 491 565 31,200 774 Climbing Kansas City Center
Sun 07:21:45 PM 40.5856 -93.6517 81° East 495 570 32,000 871 Climbing Kansas City Center
Sun 07:22:47 PM 40.6150 -93.4750 78° East 497 572 33,000 484 Climbing Kansas City Center
Sun 07:23:49 PM 40.6481 -93.2681 78° East 486 559 33,000  Level Kansas City Center
Sun 07:24:51 PM 40.6744 -93.0944 79° East 485 558 33,000  Level Kansas City Center
Sun 07:25:53 PM 40.7028 -92.9175 78° East 492 566 33,000  Level Kansas City Center
Sun 07:26:55 PM 40.7294 -92.7414 79° East 490 564 33,000  Level Kansas City Center
Sun 07:27:57 PM 40.7558 -92.5653 79° East 490 564 33,000  Level Kansas City Center
Sun 07:28:59 PM 40.7817 -92.3914 79° East 484 557 33,000  Level Kansas City Center
Sun 07:30:01 PM 40.8136 -92.1806 79° East 488 562 33,000  Level Kansas City Center
Sun 07:31:03 PM 40.8378 -92.0047 80° East 488 562 33,000  Level Kansas City Center
Sun 07:32:31 PM 40.8742 -91.7572 79° East 491 565 33,000 -800 Level Chicago Center
Sun 07:33:33 PM 40.8997 -91.5792 79° East 494 568 31,000 -1,935 Descending Chicago Center
Sun 07:34:35 PM 40.9244 -91.4031 79° East 493 567 29,000 -2,226 Descending Chicago Center
Sun 07:35:37 PM 40.9542 -91.1869 80° East 498 573 26,400 -1,984 Descending Chicago Center
Sun 07:36:39 PM 40.9783 -91.0039 80° East 505 581 24,900 -1,258 Descending Chicago Center
Sun 07:37:41 PM 41.0025 -90.8233 80° East 499 574 23,800 -919 Descending Chicago Center
Sun 07:38:43 PM 41.0256 -90.6508 80° East 478 550 23,000 -1,065 Descending Chicago Center
Sun 07:39:45 PM 41.0483 -90.4775 80° East 477 549 21,600 -1,742 Descending Chicago Center
Sun 07:40:47 PM 41.0700 -90.3100 80° East 463 533 19,400 -2,226 Descending Chicago Center
Sun 07:41:49 PM 41.0936 -90.1219 80° East 434 499 17,000 -1,887 Descending Chicago Center
Sun 07:42:51 PM 41.1131 -89.9753 80° East 411 473 15,500 -919 Descending Chicago Center
Sun 07:43:53 PM 41.1314 -89.8311 80° East 399 459 15,100 -194 Descending Chicago Center
Sun 07:44:55 PM 41.1483 -89.6856 81° East 397 457 15,100 -576 Level Chicago Center
Sun 07:45:58 PM 41.1642 -89.5417 82° East 394 453 13,900 -1,296 Descending Chicago Center
Sun 07:47:00 PM 41.1736 -89.4031 85° East 382 440 12,400 -1,403 Descending Chicago Center
Sun 07:48:02 PM 41.2042 -89.2769 72° East 369 425 11,000 -1,161 Descending Chicago Center
Sun 07:49:04 PM 41.2586 -89.1369 63° Northeast 360 414 10,000 -823 Descending Chicago Center
Sun 07:50:06 PM 41.2961 -89.0294 65° Northeast 326 375 9,300 -968 Descending Chicago Center
Sun 07:51:08 PM 41.3303 -88.9317 65° Northeast 298 343 8,000 -1,403 Descending Chicago Center
Sun 07:52:10 PM 41.3653 -88.8353 64° Northeast 291 335 6,400 -968 Descending Chicago Center
Sun 07:53:12 PM 41.3994 -88.7389 65° Northeast 290 334 6,000 -194 Descending Chicago Center
Sun 07:54:14 PM 41.4406 -88.6233 65° Northeast 290 334 6,000  Level Chicago Center
Sun 07:55:16 PM 41.4731 -88.5269 66° East 286 329 6,000 -435 Level Chicago Center
Sun 07:56:18 PM 41.5061 -88.4319 65° Northeast 285 328 5,100 -484 Descending Chicago Center
Sun 07:57:20 PM 41.5394 -88.3381 65° Northeast 282 325 5,000 -48 Descending Chicago Center
Sun 07:58:22 PM 41.5539 -88.2397 79° East 271 312 5,000  Level Chicago Center
Sun 07:59:24 PM 41.5608 -88.1364 85° East 275 316 5,000  Level Chicago Center
Sun 08:00:26 PM 41.5694 -88.0336 84° East 276 318 5,000  Level Chicago Center
Sun 08:01:28 PM 41.5794 -87.9103 84° East 276 318 5,000 -97 Level Chicago Center
Sun 08:02:30 PM 41.5878 -87.8094 84° East 274 315 4,800 -823 Descending Chicago Center
Sun 08:03:32 PM 41.5961 -87.7111 84° East 272 313 3,300 -823 Descending Chicago Center
Sun 08:04:34 PM 41.6150 -87.6361 71° East 246 283 3,100 -97 Descending Chicago Center
Sun 08:05:36 PM 41.6675 -87.6128 18° North 236 272 3,100 -339 Level Chicago Center
Sun 08:06:38 PM 41.7250 -87.6700 323° Northwest 224 258 2,400 -629 Descending Chicago Center
Sun 08:07:40 PM 41.7706 -87.6953 338° Northwest 208 239 1,800 -290 Descending Chicago Center
Sun 08:08:42 PM 41.8164 -87.6775 16° North 185 213 1,800 -290 Level Chicago Center
Sun 08:09:44 PM 41.8072 -87.7250 255° West 163 188 1,200 -387 Descending Chicago Center
Sun 08:10:46 PM 41.7761 -87.7586 219° Southwest 160 184 1,000 -194 Descending Chicago Center

Login

Don't have an account? Register now (free) for customized features, flight alerts, and more!